首页
METAR-TAF:

METAR-TAF

机场 :

Sheridan County Airport

Sheridan, 怀俄明州, 美国

纬度: 44-46-10N, 经度: 106-58-08W, 海拔: 1225米

当前天气观测

该预报发布于21分钟前的05:53 UTC
风速7节,风向西转西南
温度 4°C
湿度 56%
气压 1007 hPa
能見度: 16.1公里
天空无云

METAR: KSHR 080553Z AUTO 25007KT 10SM CLR 04/M04 A2975 RMK AO2 SLP095 T00391044 10094 21006 58003

时间: 23:14 (06:14 UTC)

预报

该预报发布于51分钟前的05:23 UTC
预报有效从08日的 06点(UTC)到 09日的 06点(UTC)
风速5节,风向多变
能見度: 10公里
天空无云
从 08日的 1500点(UTC)
风速8节,风向西北
能見度: 10公里
多云层高于5000英尺
附近有阵雨
从 08日的 1900点(UTC)
风速16节,风向西北,有时为22节阵风
能見度: 10公里
阴天层高于2000英尺
小雨
从 08日的 2300点(UTC)
风速21节,风向西北,有时为31节阵风
能見度: 4.8公里
阴天层高于1500英尺
小雨, 雪

TAF: KSHR 080523Z 0806/0906 VRB05KT P6SM SKC FM081500 31008KT P6SM VCSH BKN050 FM081900 32016G22KT P6SM -RA OVC020 FM082300 31021G31KT 3SM -RASN OVC015

超过4000个机场的气象观测和天气预报(METAR&TAF报告)。

可查询的气象台以黄色和红色小点在地图上表示。

将鼠标移到小点上方,可查看气象台名称。

然后点击查看天气观测和预报。

如需切换地图:点击带黑十字的绿色按钮放大地图;点击带横线的绿色按钮缩小地图;或者点击绿色箭头查看邻近地区的地图。


METAR-TAF: